Terminal Aerodrome Forecast
Issued by NWS Pittsburgh, PA

Current Version | Previous Version | Graphics & Text | Print | Product List | Glossary On
Versions: 1 2 3 4 5 6 7 8 9 10 11 12 13 14 15 16 17 18 19 20 21 22 23 24 25 26 27 28 29 30 31 32
848
FTUS41 KPBZ 211412 AAA
TAFPIT
TAF AMD
KPIT 211412Z 2114/2218 22013G22KT P6SM VCSH BKN040
     FM211700 30012G22KT P6SM VCSH OVC015
     FM212100 33010KT P6SM OVC010
     FM220000 35008KT P6SM OVC035
     FM220700 05010KT 3SM -RA OVC010=

USA.gov is the U.S. government's official web portal to all federal, state and local government web resources and services.